Terminal Aerodrome Forecast
Issued by NWS

Home | Current Version | Previous Version | Text Only | Print | Product List | Glossary On
Versions: 1 2 3 4 5 6 7 8 9 10 11 12 13 14 15 16 17 18 19 20 21
000
FTUS46 KMTR 251100 CCA
TAFMRY
TAF COR
KMRY 251135Z 2512/2612 VRB03KT 6SM BR OVC004
     FM251500 VRB03KT P6SM FEW008
     FM251900 29010KT P6SM SKC
     FM260400 24005KT P6SM SCT008
     FM260700 VRB03KT P6SM BKN008=

USA.gov is the U.S. government's official web portal to all federal, state and local government web resources and services.